• Join FlightAware (Why Join?)
  • Login
  • US Flag 
03:38PM EDT


 

Airport Tracker/Info


-or-


 

Live Flight TrackerFlight Track Log ✈ C-GYPG ✈ 31-Aug-2013 ✈ CYAV - CYAV

Flight Track Log - Related Links

Times and Time Zones

All times are in EDT time to prevent confusion due to time zone crossing. See the C-GYPG flight status page for this flight to view local times or setup timezone preferences in your user account.

Time Position Orientation Groundspeed Altitude Reporting Facility
EDT Latitude Longitude Course Direction KTS MPH feet Rate Location/Type
10:48AM 50.0167 -97.0500 128° Southeast 80 92 1,400  Level Winnipeg Center
10:49AM 50.0000 -97.0167 128° Southeast 80 92 2,000 480 Climbing Winnipeg Center
10:50AM 49.9833 -97.0167 180° South 80 92 2,400 420 Climbing Winnipeg Center
10:51AM 49.9500 -97.0167 180° South 80 92 2,900 300 Climbing Winnipeg Center
10:52AM 49.9333 -97.0500 232° Southwest 90 104 3,100 60 Climbing Winnipeg Center
10:53AM 49.9333 -97.1000 270° West 100 115 3,100  Level Winnipeg Center
10:54AM 49.9333 -97.1167 270° West 110 127 3,100 -60 Level Winnipeg Center
10:55AM 49.9333 -97.1667 270° West 110 127 3,000 -60 Descending Winnipeg Center
10:56AM 49.9333 -97.2333 270° West 110 127 3,000  Level Winnipeg Center
10:57AM 49.9333 -97.2833 270° West 100 115 3,100  Climbing Winnipeg Center
10:58AM 49.9500 -97.3000 327° Northwest 100 115 3,100  Level Winnipeg Center
10:59AM 49.9500 -97.3500 270° West 110 127 3,100  Level Winnipeg Center
11:00AM 49.9667 -97.3500 360° North 100 115 3,100  Level Winnipeg Center
11:01AM 49.9667 -97.3333 90° East 120 138 3,100 -60 Level Winnipeg Center
11:02AM 49.9333 -97.3000 147° Southeast 120 138 3,000 -60 Descending Winnipeg Center
11:03AM 49.9333 -97.3333 270° West 100 115 3,000  Level Winnipeg Center
11:04AM 49.9667 -97.3833 316° Northwest 100 115 3,100  Climbing Winnipeg Center
11:05AM 49.9833 -97.3500 52° Northeast 110 127 3,100  Level Winnipeg Center
11:06AM 49.9500 -97.3333 162° South 120 138 3,100  Level Winnipeg Center
11:07AM 49.9333 -97.3000 128° Southeast 130 150 3,100  Level Winnipeg Center
11:08AM 49.9333 -97.3500 270° West 100 115 3,100  Level Winnipeg Center
11:09AM 49.9667 -97.3833 327° Northwest 100 115 3,100 -60 Level Winnipeg Center
11:10AM 49.9833 -97.3833 360° North 110 127 3,000 -60 Descending Winnipeg Center
11:11AM 49.9667 -97.3333 117° Southeast 120 138 3,000  Level Winnipeg Center
11:12AM 49.9333 -97.3000 147° Southeast 110 127 3,000  Level Winnipeg Center
11:13AM 49.9333 -97.3500 270° West 110 127 3,000  Level Winnipeg Center
11:14AM 49.9500 -97.3833 308° West 110 127 3,000  Level Winnipeg Center
11:15AM 49.9667 -97.4000 327° Northwest 110 127 3,100  Climbing Winnipeg Center
11:16AM 49.9833 -97.4667 291° West 110 127 3,000 -60 Descending Winnipeg Center
11:17AM 50.0167 -97.4333 33° Northeast 100 115 3,000  Level Winnipeg Center
11:18AM 50.0000 -97.4000 128° Southeast 130 150 3,000  Level Winnipeg Center
11:19AM 49.9833 -97.3833 147° Southeast 110 127 3,000 -240 Level Winnipeg Center
11:20AM 49.9667 -97.3333 117° Southeast 110 127 2,600 -540 Descending Winnipeg Center
11:21AM 49.9500 -97.3000 128° Southeast 110 127 2,000 -600 Descending Winnipeg Center
11:22AM 49.9167 -97.2833 162° South 110 127 1,400  Descending Winnipeg Center
11:24AM 49.9000 -97.2000 107° East 100 115 2,000 360 Climbing Winnipeg Center
11:25AM 49.9000 -97.1500 90° East 100 115 2,600 480 Climbing Winnipeg Center
11:26AM 49.9000 -97.1000 90° East 100 115 3,000 180 Climbing Winnipeg Center
11:27AM 49.9167 -97.0667 52° Northeast 110 127 3,000 -60 Level Winnipeg Center
11:28AM 49.9500 -97.0500 18° North 110 127 2,900  Descending Winnipeg Center
11:29AM 49.9667 -97.0500 360° North 100 115 3,100  Climbing Winnipeg Center
11:30AM 50.0000 -97.0167 33° Northeast 100 115 3,000  Descending Winnipeg Center
11:31AM 50.0167 -97.0000 33° Northeast 110 127 3,100  Climbing Winnipeg Center
11:32AM 50.0500 -96.9667 33° Northeast 110 127 3,000 -60 Descending Winnipeg Center
11:33AM 50.0667 -96.9333 52° Northeast 110 127 3,000  Level Winnipeg Center
11:34AM 50.1000 -96.9333 360° North 110 127 3,100  Climbing Winnipeg Center
11:35AM 50.1333 -96.9167 18° North 110 127 3,000  Descending Winnipeg Center
11:36AM 50.1500 -96.8833 52° Northeast 100 115 3,100  Climbing Winnipeg Center
11:37AM 50.1833 -96.8833 360° North 100 115 3,100  Level Winnipeg Center
11:38AM 50.2000 -96.8667 33° Northeast 70 81 3,100  Level Winnipeg Center
11:39AM 50.2000 -96.9167 270° West 90 104 3,100  Level Winnipeg Center
11:40AM 50.2000 -96.9333 270° West 90 104 3,100 -120 Level Winnipeg Center
11:41AM 50.2000 -97.0000 270° West 90 104 2,900 -300 Descending Winnipeg Center
11:42AM 50.1833 -97.0000 180° South 110 127 2,600 -300 Descending Winnipeg Center
11:43AM 50.1500 -97.0000 180° South 110 127 2,300 -300 Descending Winnipeg Center
11:44AM 50.1167 -97.0167 198° South 100 115 2,000 -360 Descending Winnipeg Center
11:45AM 50.1000 -97.0167 180° South 110 127 1,600 -420 Descending Winnipeg Center
11:46AM 50.0667 -97.0167 180° South 100 115 1,200 -360 Descending Winnipeg Center
11:47AM 50.0500 -97.0167 180° South 70 81 900 -300 Descending Winnipeg Center